Olenegorsk, Russia
Current Conditions -  °F | °C
As of 1:00 PM on Wednesday 26 Nov 2014 (Local Time) from ULMM Reporting Station
Broken Clouds Broken Clouds  
Wind Chill: 30°   Ceiling: 1500
Heat Index: 34°   Visibility: 6mi
Dew Point: 28°   Wind: 4mph
Humidity: 81%   Direction: NA
Pressure: 30"   Gusts: NA
Location:  68.15°N, 33.3°E
Report Text: ULMM 261000Z VRB02MPS 9999 BKN015CB 01/M02 Q1016 NOSIG RMKQFE755 31690242
Loading
Personal Weather Stations






























Interactive Weather Map New forecast layout! Learn more

10-Day Weather Forecast

Advertisements
Track Severe Weather on mobile